createdAt,value
2022-08-11T00:00:39.102Z,99221.88
2022-08-11T00:03:47.055Z,99227.94
2022-08-11T00:06:53.085Z,99226.03
2022-08-11T00:09:56.014Z,99216.72
2022-08-11T00:13:05.263Z,99227.53
2022-08-11T00:16:14.589Z,99227.53
2022-08-11T00:20:14.274Z,99230.56
2022-08-11T00:22:47.703Z,99214.19
2022-08-11T00:25:54.858Z,99220.44
2022-08-11T00:28:59.417Z,99212.88
2022-08-11T00:32:06.178Z,99220.25
2022-08-11T00:35:53.803Z,99218.00
2022-08-11T00:38:39.235Z,99205.88
2022-08-11T00:41:55.780Z,99205.25
2022-08-11T00:45:10.291Z,99213.38
2022-08-11T00:48:25.434Z,99204.53
2022-08-11T00:52:05.204Z,99212.22
2022-08-11T00:55:55.679Z,99208.25
2022-08-11T00:59:39.733Z,99214.16
2022-08-11T01:03:15.989Z,99214.06
2022-08-11T01:06:49.969Z,99207.16
2022-08-11T01:10:24.534Z,99201.75
2022-08-11T01:14:02.490Z,99217.50
2022-08-11T01:17:34.616Z,99212.13
2022-08-11T01:21:06.584Z,99221.63
2022-08-11T01:24:32.715Z,99221.44
2022-08-11T01:28:18.845Z,99217.81
2022-08-11T01:32:02.231Z,99224.56
2022-08-11T01:35:38.315Z,99214.25
2022-08-11T01:39:18.810Z,99218.81
2022-08-11T01:43:23.229Z,99212.19
2022-08-11T01:46:36.488Z,99216.44
2022-08-11T01:50:07.540Z,99215.84
2022-08-11T01:53:27.301Z,99215.50
2022-08-11T01:56:58.834Z,99220.50
2022-08-11T02:00:08.614Z,99221.16
2022-08-11T02:03:19.524Z,99207.75
2022-08-11T02:06:50.763Z,99209.25
2022-08-11T02:10:35.328Z,99212.06
2022-08-11T02:13:52.214Z,99215.84
2022-08-11T02:17:14.648Z,99211.06
2022-08-11T02:20:46.023Z,99212.25
2022-08-11T02:24:04.030Z,99206.84
2022-08-11T02:27:19.012Z,99213.31
2022-08-11T02:30:25.626Z,99211.03
2022-08-11T02:33:36.479Z,99209.41
2022-08-11T02:36:44.652Z,99213.94
2022-08-11T02:40:07.640Z,99220.88
2022-08-11T02:43:36.305Z,99212.59
2022-08-11T02:46:54.646Z,99210.59
2022-08-11T02:50:07.674Z,99221.66
2022-08-11T02:53:20.336Z,99203.47
2022-08-11T02:56:37.764Z,99211.50
2022-08-11T02:59:53.469Z,99211.25
2022-08-11T03:03:17.327Z,99204.09
2022-08-11T03:06:35.842Z,99196.88
2022-08-11T03:09:51.138Z,99208.13
2022-08-11T03:13:18.298Z,99206.59
2022-08-11T03:16:48.884Z,99213.84
2022-08-11T03:20:03.935Z,99221.22
2022-08-11T03:23:19.719Z,99202.72
2022-08-11T03:26:26.209Z,99218.31
2022-08-11T03:29:34.273Z,99211.28
2022-08-11T03:33:06.243Z,99209.66
2022-08-11T03:36:21.546Z,99219.16
2022-08-11T03:39:33.232Z,99218.31
2022-08-11T03:42:46.501Z,99220.13
2022-08-11T03:45:58.190Z,99221.31
2022-08-11T03:49:11.768Z,99216.78
2022-08-11T03:52:23.314Z,99224.88
2022-08-11T03:55:39.625Z,99211.69
2022-08-11T03:59:37.442Z,99217.94
2022-08-11T04:03:11.804Z,99217.19
2022-08-11T04:06:47.627Z,99217.41
2022-08-11T04:10:23.178Z,99224.31
2022-08-11T04:14:29.847Z,99227.03
2022-08-11T04:18:07.685Z,99227.50
2022-08-11T04:21:36.730Z,99228.53
2022-08-11T04:25:28.171Z,99223.34
2022-08-11T04:28:52.113Z,99210.72
2022-08-11T04:32:04.594Z,99218.38
2022-08-11T04:35:25.986Z,99222.41
2022-08-11T04:38:58.855Z,99218.47
2022-08-11T04:42:47.409Z,99222.06
2022-08-11T04:46:08.592Z,99219.72
2022-08-11T04:49:47.958Z,99224.25
2022-08-11T04:53:29.264Z,99226.94
2022-08-11T04:56:55.385Z,99213.44
2022-08-11T05:00:25.162Z,99211.28
2022-08-11T05:03:53.813Z,99207.38
2022-08-11T05:07:29.173Z,99217.84
2022-08-11T05:10:53.381Z,99197.03
2022-08-11T05:14:43.780Z,99214.38
2022-08-11T05:18:19.698Z,99212.66
2022-08-11T05:21:54.516Z,99218.31
2022-08-11T05:26:44.062Z,99214.13
2022-08-11T05:29:20.559Z,99207.75
2022-08-11T05:32:42.288Z,99216.09
2022-08-11T05:36:01.372Z,99212.28
2022-08-11T05:39:36.358Z,99230.13
2022-08-11T05:43:01.382Z,99223.34
2022-08-11T05:46:24.257Z,99197.53
2022-08-11T05:49:51.101Z,99207.88
2022-08-11T05:53:15.681Z,99225.41
2022-08-11T05:56:21.600Z,99228.44
2022-08-11T05:59:25.771Z,99225.28
2022-08-11T06:02:30.435Z,99224.13
2022-08-11T06:05:38.169Z,99212.22
2022-08-11T06:08:48.005Z,99205.34
2022-08-11T06:11:51.027Z,99222.91
2022-08-11T06:14:55.170Z,99221.84
2022-08-11T06:17:58.926Z,99216.00
2022-08-11T06:21:02.513Z,99221.72
2022-08-11T06:24:12.232Z,99216.41
2022-08-11T06:27:20.346Z,99222.88
2022-08-11T06:30:35.440Z,99230.78
2022-08-11T06:33:50.655Z,99224.56
2022-08-11T06:37:03.819Z,99226.94
2022-08-11T06:40:09.359Z,99235.59
2022-08-11T06:43:19.075Z,99220.59
2022-08-11T06:46:28.682Z,99229.03
2022-08-11T06:49:56.299Z,99227.41
2022-08-11T06:52:58.737Z,99222.41
2022-08-11T06:56:20.491Z,99230.69
2022-08-11T06:59:41.887Z,99230.97
2022-08-11T07:02:46.740Z,99227.97
2022-08-11T07:05:50.362Z,99231.19
2022-08-11T07:09:25.617Z,99232.94
2022-08-11T07:12:57.034Z,99232.00
2022-08-11T07:16:12.946Z,99220.28
2022-08-11T07:19:37.720Z,99222.56
2022-08-11T07:22:58.132Z,99227.66
2022-08-11T07:26:20.602Z,99229.50
2022-08-11T07:29:24.137Z,99232.31
2022-08-11T07:32:27.293Z,99230.50
2022-08-11T07:35:32.826Z,99238.25
2022-08-11T07:38:47.455Z,99232.34
2022-08-11T07:41:50.723Z,99237.00
2022-08-11T07:45:14.359Z,99235.91
2022-08-11T07:48:35.215Z,99233.31
2022-08-11T07:51:56.475Z,99230.84
2022-08-11T07:54:59.265Z,99231.25
2022-08-11T07:58:21.601Z,99230.00
2022-08-11T08:01:47.310Z,99235.66
2022-08-11T08:05:07.750Z,99233.19
2022-08-11T08:08:28.139Z,99230.66
2022-08-11T08:11:48.759Z,99237.06
2022-08-11T08:15:08.985Z,99231.00
2022-08-11T08:18:26.699Z,99232.06
2022-08-11T08:21:29.452Z,99231.66
2022-08-11T08:24:35.680Z,99233.28
2022-08-11T08:27:38.593Z,99234.47
2022-08-11T08:30:52.941Z,99231.22
2022-08-11T08:33:56.424Z,99229.25
2022-08-11T08:36:58.174Z,99230.31
2022-08-11T08:40:00.107Z,99228.91
2022-08-11T08:43:04.399Z,99233.09
2022-08-11T08:46:09.152Z,99227.97
2022-08-11T08:49:14.914Z,99228.16
2022-08-11T08:52:30.789Z,99223.31
2022-08-11T08:55:36.189Z,99225.50
2022-08-11T08:58:41.657Z,99227.69
2022-08-11T09:01:46.133Z,99224.94
2022-08-11T09:04:49.840Z,99221.41
2022-08-11T09:07:54.530Z,99219.31
2022-08-11T09:11:15.429Z,99219.91
2022-08-11T09:14:17.461Z,99223.97
2022-08-11T09:17:22.347Z,99222.81
2022-08-11T09:20:26.608Z,99214.50
2022-08-11T09:27:10.642Z,99202.66
2022-08-11T09:30:12.885Z,99208.31
2022-08-11T09:33:15.599Z,99205.19
2022-08-11T09:36:39.812Z,99200.28
2022-08-11T09:40:00.952Z,99209.19
2022-08-11T09:43:24.697Z,99205.31
2022-08-11T09:46:28.665Z,99197.44
2022-08-11T09:49:30.847Z,99203.28
2022-08-11T09:52:36.726Z,99202.44
2022-08-11T09:55:41.569Z,99193.56
2022-08-11T09:58:44.375Z,99185.06
2022-08-11T10:01:47.231Z,99191.50
2022-08-11T10:04:51.623Z,99183.19
2022-08-11T10:07:55.442Z,99176.94
2022-08-11T10:10:58.015Z,99179.38
2022-08-11T10:14:32.883Z,99172.25
2022-08-11T10:17:39.695Z,99175.25
2022-08-11T10:20:42.744Z,99171.41
2022-08-11T10:24:05.396Z,99166.53
2022-08-11T10:27:08.553Z,99162.50
2022-08-11T10:30:33.513Z,99159.75
2022-08-11T10:33:59.388Z,99151.88
2022-08-11T10:37:05.326Z,99159.75
2022-08-11T10:40:11.128Z,99153.09
2022-08-11T10:44:01.430Z,99156.03
2022-08-11T10:46:55.246Z,99144.09
2022-08-11T10:50:17.181Z,99146.56
2022-08-11T10:53:39.912Z,99146.47
2022-08-11T10:57:02.923Z,99132.66
2022-08-11T11:00:06.885Z,99128.78
2022-08-11T11:03:23.629Z,99132.81
2022-08-11T11:06:30.030Z,99133.13
2022-08-11T11:09:34.808Z,99124.75
2022-08-11T11:12:58.927Z,99123.13
2022-08-11T11:16:20.424Z,99121.66
2022-08-11T11:19:25.377Z,99130.25
2022-08-11T11:22:38.453Z,99123.72
2022-08-11T11:26:08.325Z,99115.13
2022-08-11T11:29:41.277Z,99117.03
2022-08-11T11:32:50.082Z,99129.91
2022-08-11T11:35:59.376Z,99124.34
2022-08-11T11:39:01.744Z,99110.47
2022-08-11T11:42:05.314Z,99118.97
2022-08-11T11:45:08.525Z,99113.72
2022-08-11T11:48:12.197Z,99117.25
2022-08-11T11:51:14.436Z,99112.38
2022-08-11T11:54:16.620Z,99110.53
2022-08-11T11:57:38.002Z,99100.94
2022-08-11T12:01:14.602Z,99101.28
2022-08-11T12:04:20.790Z,99091.88
2022-08-11T12:08:05.230Z,99080.34
2022-08-11T12:11:28.334Z,99094.38
2022-08-11T12:14:30.541Z,99090.16
2022-08-11T12:17:32.515Z,99088.63
2022-08-11T12:20:37.467Z,99080.94
2022-08-11T12:24:04.268Z,99077.53
2022-08-11T12:27:24.287Z,99079.78
2022-08-11T12:30:28.988Z,99072.41
2022-08-11T12:33:39.122Z,99081.16
2022-08-11T12:36:45.757Z,99063.88
2022-08-11T12:40:16.910Z,99060.28
2022-08-11T12:43:56.408Z,99052.59
2022-08-11T12:47:02.080Z,99045.88
2022-08-11T12:50:23.835Z,99051.19
2022-08-11T12:53:28.473Z,99050.53
2022-08-11T12:56:54.798Z,99042.13
2022-08-11T13:00:15.768Z,99037.97
2022-08-11T13:03:38.313Z,99039.84
2022-08-11T13:06:41.876Z,99034.41
2022-08-11T13:09:46.137Z,99033.53
2022-08-11T13:12:48.164Z,99029.06
2022-08-11T13:15:50.754Z,99021.19
2022-08-11T13:18:53.661Z,99019.50
2022-08-11T13:21:56.757Z,99020.47
2022-08-11T13:25:00.161Z,99015.66
2022-08-11T13:28:03.149Z,99016.69
2022-08-11T13:31:12.155Z,99010.16
2022-08-11T13:34:15.012Z,99018.03
2022-08-11T13:37:17.003Z,99018.19
2022-08-11T13:40:33.332Z,99020.75
2022-08-11T13:43:45.217Z,99013.25
2022-08-11T13:46:47.913Z,99008.81
2022-08-11T13:49:55.918Z,99012.06
2022-08-11T13:52:57.598Z,99007.72
2022-08-11T13:56:00.976Z,99002.75
2022-08-11T13:59:03.765Z,99003.81
2022-08-11T14:02:28.273Z,98986.81
2022-08-11T14:05:34.032Z,98985.41
2022-08-11T14:08:40.225Z,98973.59
2022-08-11T14:12:22.742Z,98981.47
2022-08-11T14:15:28.776Z,98975.84
2022-08-11T14:18:32.262Z,98978.59
2022-08-11T14:34:43.866Z,98960.72
2022-08-11T14:44:38.697Z,98970.31
2022-08-11T14:47:44.975Z,98963.66
2022-08-11T14:50:48.475Z,98965.00
2022-08-11T14:54:10.055Z,98953.16
2022-08-11T14:57:13.733Z,98962.66
2022-08-11T15:00:18.054Z,98951.50
2022-08-11T15:03:23.939Z,98954.06
2022-08-11T15:06:29.724Z,98953.56
2022-08-11T15:09:31.601Z,98954.78
2022-08-11T15:12:33.971Z,98949.13
2022-08-11T15:15:54.266Z,98949.50
2022-08-11T15:18:56.211Z,98950.84
2022-08-11T15:22:18.005Z,98949.50
2022-08-11T15:25:23.204Z,98949.88
2022-08-11T15:28:46.010Z,98945.91
2022-08-11T15:32:06.909Z,98931.34
2022-08-11T15:35:28.135Z,98934.28
2022-08-11T15:38:47.393Z,98918.00
2022-08-11T15:42:10.136Z,98927.94
2022-08-11T15:45:35.316Z,98925.19
2022-08-11T15:48:41.788Z,98923.28
2022-08-11T15:51:46.110Z,98914.56
2022-08-11T15:54:49.889Z,98914.72
2022-08-11T15:58:12.256Z,98902.94
2022-08-11T16:01:50.620Z,98915.75
2022-08-11T16:04:53.462Z,98905.50
2022-08-11T16:07:58.451Z,98904.78
2022-08-11T16:11:02.246Z,98903.13
2022-08-11T16:14:25.111Z,98895.03
2022-08-11T16:17:27.940Z,98893.50
2022-08-11T16:20:30.924Z,98892.13
2022-08-11T16:23:32.587Z,98893.72
2022-08-11T16:27:10.383Z,98890.25
2022-08-11T16:30:00.515Z,98893.03
2022-08-11T16:33:22.693Z,98890.13
2022-08-11T16:36:46.436Z,98891.31
2022-08-11T16:39:51.200Z,98882.25
2022-08-11T16:43:13.503Z,98879.69
2022-08-11T16:46:36.008Z,98873.16
2022-08-11T16:49:40.024Z,98881.22
2022-08-11T16:52:42.694Z,98885.84
2022-08-11T16:55:52.490Z,98873.31
2022-08-11T16:59:17.041Z,98879.47
2022-08-11T17:02:40.413Z,98882.56
2022-08-11T17:06:03.217Z,98875.38
2022-08-11T17:09:23.470Z,98870.56
2022-08-11T17:12:45.187Z,98876.56
2022-08-11T17:16:08.676Z,98877.59
2022-08-11T17:19:12.947Z,98868.31
2022-08-11T17:22:33.311Z,98879.94
2022-08-11T17:26:03.565Z,98879.94
2022-08-11T17:29:01.046Z,98876.84
2022-08-11T17:32:26.063Z,98874.22
2022-08-11T17:35:31.247Z,98881.91
2022-08-11T17:38:34.101Z,98869.56
2022-08-11T17:41:54.300Z,98873.66
2022-08-11T17:45:15.218Z,98873.81
2022-08-11T17:48:28.891Z,98867.59
2022-08-11T17:51:50.097Z,98867.72
2022-08-11T17:55:13.467Z,98866.38
2022-08-11T17:58:35.166Z,98869.91
2022-08-11T18:01:37.918Z,98868.88
2022-08-11T18:04:44.802Z,98880.09
2022-08-11T18:08:06.919Z,98876.28
2022-08-11T18:12:07.044Z,98883.75
2022-08-11T18:15:11.257Z,98886.44
2022-08-11T18:18:32.117Z,98884.50
2022-08-11T18:22:08.346Z,98882.88
2022-08-11T18:25:43.336Z,98885.88
2022-08-11T18:29:09.571Z,98888.00
2022-08-11T18:32:49.327Z,98885.63
2022-08-11T18:36:12.541Z,98887.75
2022-08-11T18:39:36.125Z,98888.16
2022-08-11T18:42:57.927Z,98890.63
2022-08-11T18:46:24.904Z,98893.59
2022-08-11T18:50:03.671Z,98891.41
2022-08-11T18:53:26.170Z,98896.03
2022-08-11T18:56:48.938Z,98895.75
2022-08-11T19:00:10.822Z,98890.38
2022-08-11T19:03:48.749Z,98892.00
2022-08-11T19:07:11.424Z,98886.75
2022-08-11T19:10:32.138Z,98896.84
2022-08-11T19:13:54.545Z,98903.88
2022-08-11T19:17:44.683Z,98906.63
2022-08-11T19:21:01.904Z,98907.38
2022-08-11T19:24:27.517Z,98912.69
2022-08-11T19:27:48.873Z,98917.00
2022-08-11T19:31:14.698Z,98923.91
2022-08-11T19:34:38.894Z,98921.91
2022-08-11T19:37:59.760Z,98912.75
2022-08-11T19:41:52.143Z,98918.91
2022-08-11T19:45:04.015Z,98921.94
2022-08-11T19:48:31.997Z,98916.06
2022-08-11T19:51:54.607Z,98919.66
2022-08-11T19:55:16.571Z,98912.19
2022-08-11T19:58:38.055Z,98913.63
2022-08-11T20:02:13.865Z,98919.91
2022-08-11T20:05:39.985Z,98915.31
2022-08-11T20:09:20.595Z,98909.41
2022-08-11T20:12:41.451Z,98912.72
2022-08-11T20:16:02.059Z,98917.72
2022-08-11T20:19:25.998Z,98919.00
2022-08-11T20:23:06.409Z,98921.28
2022-08-11T20:26:31.604Z,98918.44
2022-08-11T20:29:55.875Z,98925.00
2022-08-11T20:33:16.830Z,98924.31
2022-08-11T20:36:37.806Z,98926.72
2022-08-11T20:40:00.861Z,98925.00
2022-08-11T20:44:06.128Z,98925.44
2022-08-11T20:47:02.871Z,98925.44
2022-08-11T20:50:25.675Z,98930.88
2022-08-11T20:53:51.055Z,98928.41
2022-08-11T20:57:15.282Z,98925.50
2022-08-11T21:00:39.075Z,98932.09
2022-08-11T21:04:00.795Z,98932.34
2022-08-11T21:07:28.365Z,98933.44
2022-08-11T21:10:51.841Z,98935.91
2022-08-11T21:14:15.031Z,98946.25
2022-08-11T21:17:38.445Z,98941.09
2022-08-11T21:21:20.396Z,98932.66
2022-08-11T21:24:42.946Z,98938.63
2022-08-11T21:28:09.291Z,98937.59
2022-08-11T21:31:32.299Z,98928.25
2022-08-11T21:34:53.947Z,98933.13
2022-08-11T21:38:15.082Z,98931.69
2022-08-11T21:41:36.112Z,98932.53
2022-08-11T21:44:57.492Z,98925.50
2022-08-11T21:48:19.827Z,98933.78
2022-08-11T21:51:44.525Z,98933.34
2022-08-11T21:55:05.031Z,98924.59
2022-08-11T21:58:26.917Z,98924.88
2022-08-11T22:01:51.860Z,98928.44
2022-08-11T22:05:14.654Z,98929.88
2022-08-11T22:08:34.999Z,98932.81
2022-08-11T22:12:29.504Z,98936.81
2022-08-11T22:15:35.085Z,98937.81
2022-08-11T22:18:55.812Z,98924.50
2022-08-11T22:22:18.073Z,98934.91
2022-08-11T22:25:51.415Z,98935.31
2022-08-11T22:29:12.791Z,98926.69
2022-08-11T22:32:34.316Z,98931.91
2022-08-11T22:35:56.589Z,98926.72
2022-08-11T22:39:19.720Z,98939.59
2022-08-11T22:42:40.531Z,98943.03
2022-08-11T22:46:01.114Z,98938.44
2022-08-11T22:49:21.600Z,98934.16
2022-08-11T22:52:42.323Z,98933.44
2022-08-11T22:56:04.823Z,98927.53
2022-08-11T22:59:25.259Z,98925.94
2022-08-11T23:02:47.256Z,98927.41
2022-08-11T23:06:11.622Z,98927.41
2022-08-11T23:09:32.699Z,98934.66
2022-08-11T23:12:54.880Z,98927.41
2022-08-11T23:16:15.447Z,98924.44
2022-08-11T23:20:06.869Z,98922.31
2022-08-11T23:23:16.555Z,98919.09
2022-08-11T23:26:38.836Z,98916.53
2022-08-11T23:30:00.489Z,98915.28
2022-08-11T23:33:21.262Z,98917.78
2022-08-11T23:36:47.806Z,98905.72
2022-08-11T23:40:08.719Z,98918.44
2022-08-11T23:43:37.879Z,98908.59
2022-08-11T23:50:43.425Z,98906.94
2022-08-11T23:54:08.027Z,98907.34
2022-08-11T23:57:29.126Z,98904.13
